createdAt,value
2022-12-08T00:00:00.034Z,44.13
2022-12-08T00:01:12.964Z,40.35
2022-12-08T00:02:24.650Z,40.45
2022-12-08T00:03:36.806Z,40.45
2022-12-08T00:05:07.159Z,39.70
2022-12-08T00:06:50.312Z,46.22
2022-12-08T00:08:20.260Z,42.38
2022-12-08T00:09:39.161Z,43.10
2022-12-08T00:10:51.179Z,50.22
2022-12-08T00:12:05.835Z,40.05
2022-12-08T00:13:17.332Z,45.42
2022-12-08T00:14:30.420Z,37.20
2022-12-08T00:15:41.846Z,43.75
2022-12-08T00:16:54.416Z,44.05
2022-12-08T00:18:06.176Z,40.95
2022-12-08T00:19:17.621Z,36.83
2022-12-08T00:20:29.135Z,41.33
2022-12-08T00:21:40.655Z,43.40
2022-12-08T00:22:52.230Z,43.22
2022-12-08T00:24:03.776Z,42.78
2022-12-08T00:25:15.237Z,48.67
2022-12-08T00:26:26.679Z,39.22
2022-12-08T00:27:38.089Z,46.63
2022-12-08T00:28:49.593Z,42.25
2022-12-08T00:30:01.036Z,39.25
2022-12-08T00:31:12.762Z,40.97
2022-12-08T00:32:24.250Z,47.08
2022-12-08T00:33:35.761Z,44.38
2022-12-08T00:34:47.227Z,35.63
2022-12-08T00:35:58.711Z,40.08
2022-12-08T00:37:10.189Z,39.42
2022-12-08T00:38:21.651Z,36.47
2022-12-08T00:39:33.098Z,34.08
2022-12-08T00:40:45.665Z,42.20
2022-12-08T00:42:12.122Z,33.97
2022-12-08T00:43:23.627Z,41.67
2022-12-08T00:44:35.065Z,38.70
2022-12-08T00:45:46.621Z,38.00
2022-12-08T00:46:58.383Z,37.95
2022-12-08T00:48:09.908Z,31.15
2022-12-08T00:49:21.588Z,40.40
2022-12-08T00:50:33.320Z,37.55
2022-12-08T00:51:44.951Z,33.13
2022-12-08T00:52:56.389Z,41.80
2022-12-08T00:54:07.853Z,35.28
2022-12-08T00:55:19.336Z,28.98
2022-12-08T00:56:30.978Z,33.35
2022-12-08T00:57:42.428Z,34.78
2022-12-08T00:58:53.865Z,29.60
2022-12-08T01:00:06.120Z,32.67
2022-12-08T01:01:18.022Z,29.80
2022-12-08T01:02:29.604Z,35.53
2022-12-08T01:03:42.031Z,38.17
2022-12-08T01:04:53.535Z,42.65
2022-12-08T01:06:05.685Z,46.00
2022-12-08T01:07:17.364Z,37.55
2022-12-08T01:08:28.883Z,46.50
2022-12-08T01:09:40.449Z,43.78
2022-12-08T01:10:52.006Z,41.97
2022-12-08T01:12:03.537Z,44.53
2022-12-08T01:13:14.998Z,37.13
2022-12-08T01:14:26.682Z,34.25
2022-12-08T01:15:38.121Z,38.38
2022-12-08T01:16:49.689Z,41.25
2022-12-08T01:18:01.194Z,32.83
2022-12-08T01:19:13.991Z,47.40
2022-12-08T01:20:25.401Z,37.78
2022-12-08T01:21:36.820Z,39.13
2022-12-08T01:22:48.422Z,39.38
2022-12-08T01:24:00.547Z,41.00
2022-12-08T01:25:12.123Z,42.63
2022-12-08T01:26:23.724Z,44.45
2022-12-08T01:27:35.156Z,39.47
2022-12-08T01:28:46.927Z,46.05
2022-12-08T01:29:58.408Z,38.45
2022-12-08T01:31:13.988Z,36.90
2022-12-08T01:32:25.505Z,38.28
2022-12-08T01:33:36.952Z,41.00
2022-12-08T01:34:48.368Z,42.15
2022-12-08T01:36:02.789Z,46.42
2022-12-08T01:37:14.380Z,38.08
2022-12-08T01:38:25.863Z,47.50
2022-12-08T01:39:37.311Z,40.67
2022-12-08T01:40:49.093Z,41.85
2022-12-08T01:42:00.533Z,45.50
2022-12-08T01:43:19.207Z,36.60
2022-12-08T01:44:30.635Z,40.45
2022-12-08T01:45:43.100Z,35.42
2022-12-08T01:46:55.052Z,33.08
2022-12-08T01:48:11.142Z,30.67
2022-12-08T01:49:28.463Z,34.15
2022-12-08T01:50:41.581Z,33.92
2022-12-08T01:51:53.900Z,32.92
2022-12-08T01:53:09.286Z,34.38
2022-12-08T01:54:22.001Z,36.20
2022-12-08T01:55:39.204Z,44.25
2022-12-08T01:56:56.785Z,35.17
2022-12-08T01:58:19.527Z,30.95
2022-12-08T01:59:33.045Z,37.53
2022-12-08T02:00:44.502Z,42.28
2022-12-08T02:01:56.775Z,35.50
2022-12-08T02:03:11.921Z,31.27
2022-12-08T02:04:23.434Z,40.63
2022-12-08T02:05:36.790Z,41.00
2022-12-08T02:06:49.292Z,40.30
2022-12-08T02:08:01.837Z,32.33
2022-12-08T02:09:14.430Z,33.05
2022-12-08T02:10:28.126Z,33.72
2022-12-08T02:11:39.596Z,31.95
2022-12-08T02:12:53.996Z,30.08
2022-12-08T02:14:08.323Z,30.63
2022-12-08T02:15:20.407Z,31.83
2022-12-08T02:16:50.340Z,33.78
2022-12-08T02:18:20.679Z,36.53
2022-12-08T02:19:50.653Z,32.80
2022-12-08T02:21:24.908Z,37.40
2022-12-08T02:22:42.969Z,32.97
2022-12-08T02:24:08.234Z,30.20
2022-12-08T02:25:22.331Z,26.95
2022-12-08T02:26:43.050Z,30.63
2022-12-08T02:27:54.481Z,31.25
2022-12-08T02:29:05.909Z,29.52
2022-12-08T02:30:22.888Z,28.52
2022-12-08T02:31:49.380Z,29.40
2022-12-08T02:33:12.858Z,29.00
2022-12-08T02:34:50.585Z,31.42
2022-12-08T02:36:02.085Z,29.90
2022-12-08T02:37:16.301Z,28.67
2022-12-08T02:38:32.008Z,30.98
2022-12-08T02:39:43.426Z,36.42
2022-12-08T02:41:01.101Z,35.08
2022-12-08T02:42:19.396Z,36.30
2022-12-08T02:43:54.723Z,30.45
2022-12-08T02:45:09.177Z,28.45
2022-12-08T02:46:35.936Z,31.33
2022-12-08T02:47:47.932Z,32.85
2022-12-08T02:48:59.792Z,37.08
2022-12-08T02:50:12.144Z,29.95
2022-12-08T02:51:23.873Z,38.20
2022-12-08T02:52:39.669Z,31.85
2022-12-08T02:53:51.205Z,30.42
2022-12-08T02:55:05.460Z,33.80
2022-12-08T02:56:37.155Z,30.83
2022-12-08T02:57:51.629Z,35.30
2022-12-08T02:59:03.068Z,29.00
2022-12-08T03:00:16.728Z,34.83
2022-12-08T03:01:34.452Z,32.38
2022-12-08T03:02:45.956Z,34.67
2022-12-08T03:04:08.456Z,41.33
2022-12-08T03:05:22.166Z,36.92
2022-12-08T03:06:42.633Z,44.22
2022-12-08T03:08:00.671Z,46.38
2022-12-08T03:09:14.886Z,45.40
2022-12-08T03:10:34.192Z,32.53
2022-12-08T03:11:45.674Z,40.67
2022-12-08T03:13:17.436Z,31.67
2022-12-08T03:14:29.537Z,47.40
2022-12-08T03:15:41.879Z,45.88
2022-12-08T03:16:55.542Z,36.80
2022-12-08T03:18:08.635Z,40.72
2022-12-08T03:19:22.468Z,31.58
2022-12-08T03:20:34.536Z,31.98
2022-12-08T03:21:48.851Z,32.28
2022-12-08T03:23:01.565Z,35.67
2022-12-08T03:24:13.193Z,33.75
2022-12-08T03:25:26.024Z,26.73
2022-12-08T03:26:48.836Z,31.88
2022-12-08T03:28:00.480Z,35.92
2022-12-08T03:29:12.553Z,36.35
2022-12-08T03:30:24.051Z,33.60
2022-12-08T03:31:39.059Z,30.27
2022-12-08T03:33:01.827Z,30.48
2022-12-08T03:34:14.151Z,31.13
2022-12-08T03:35:29.971Z,30.48
2022-12-08T03:36:41.551Z,28.45
2022-12-08T03:38:01.436Z,32.63
2022-12-08T03:39:12.926Z,30.92
2022-12-08T03:40:24.522Z,28.13
2022-12-08T03:41:36.017Z,29.85
2022-12-08T03:42:47.570Z,32.40
2022-12-08T03:43:59.611Z,29.50
2022-12-08T03:45:11.526Z,24.38
2022-12-08T03:47:34.513Z,27.58
2022-12-08T03:48:46.022Z,31.98
2022-12-08T03:49:57.462Z,24.77
2022-12-08T03:51:09.051Z,27.38
2022-12-08T03:52:20.504Z,32.40
2022-12-08T03:53:31.959Z,36.47
2022-12-08T03:54:43.404Z,31.77
2022-12-08T03:55:54.928Z,32.47
2022-12-08T03:57:06.543Z,29.27
2022-12-08T03:58:17.973Z,24.45
2022-12-08T03:59:29.447Z,32.15
2022-12-08T04:00:40.988Z,29.85
2022-12-08T04:01:52.519Z,26.48
2022-12-08T04:03:04.702Z,23.95
2022-12-08T04:04:16.289Z,26.60
2022-12-08T04:05:27.740Z,27.98
2022-12-08T04:06:39.149Z,28.08
2022-12-08T04:07:50.646Z,27.20
2022-12-08T04:09:02.202Z,23.25
2022-12-08T04:10:14.195Z,26.45
2022-12-08T04:11:25.643Z,26.08
2022-12-08T04:12:37.085Z,31.70
2022-12-08T04:13:48.647Z,28.58
2022-12-08T04:15:00.172Z,25.55
2022-12-08T04:16:15.913Z,28.90
2022-12-08T04:17:27.431Z,22.70
2022-12-08T04:18:38.893Z,26.98
2022-12-08T04:19:50.358Z,28.77
2022-12-08T04:21:01.893Z,31.58
2022-12-08T04:22:13.356Z,45.95
2022-12-08T04:23:24.801Z,26.02
2022-12-08T04:24:36.233Z,31.13
2022-12-08T04:25:47.653Z,36.65
2022-12-08T04:26:59.076Z,28.75
2022-12-08T04:28:10.655Z,32.28
2022-12-08T04:29:22.087Z,36.75
2022-12-08T04:30:33.589Z,44.33
2022-12-08T04:31:45.188Z,45.75
2022-12-08T04:32:56.702Z,53.90
2022-12-08T04:34:08.971Z,54.75
2022-12-08T04:35:20.406Z,51.85
2022-12-08T04:36:32.108Z,44.97
2022-12-08T04:37:44.401Z,25.90
2022-12-08T04:38:55.831Z,24.20
2022-12-08T04:40:07.742Z,29.25
2022-12-08T04:41:19.273Z,23.67
2022-12-08T04:42:30.748Z,21.58
2022-12-08T04:43:44.341Z,22.58
2022-12-08T04:44:55.756Z,28.73
2022-12-08T04:46:08.336Z,21.40
2022-12-08T04:47:20.993Z,22.85
2022-12-08T04:48:32.454Z,25.00
2022-12-08T04:49:43.909Z,19.92
2022-12-08T04:50:55.369Z,17.42
2022-12-08T04:52:06.846Z,23.70
2022-12-08T04:53:19.734Z,20.13
2022-12-08T04:54:31.268Z,19.10
2022-12-08T04:55:44.211Z,24.80
2022-12-08T04:56:55.680Z,25.35
2022-12-08T04:58:07.299Z,25.88
2022-12-08T04:59:18.784Z,28.30
2022-12-08T05:00:30.229Z,24.38
2022-12-08T05:01:41.806Z,28.30
2022-12-08T05:02:53.431Z,31.70
2022-12-08T05:04:04.938Z,27.08
2022-12-08T05:05:16.492Z,29.05
2022-12-08T05:06:27.912Z,27.10
2022-12-08T05:07:39.461Z,23.77
2022-12-08T05:08:51.026Z,27.77
2022-12-08T05:10:03.292Z,27.90
2022-12-08T05:11:14.951Z,25.00
2022-12-08T05:12:26.418Z,25.27
2022-12-08T05:13:37.947Z,26.80
2022-12-08T05:14:49.440Z,27.58
2022-12-08T05:16:11.744Z,24.83
2022-12-08T05:17:23.275Z,21.67
2022-12-08T05:18:35.159Z,22.33
2022-12-08T05:19:46.741Z,24.08
2022-12-08T05:20:58.396Z,22.75
2022-12-08T05:22:10.054Z,22.98
2022-12-08T05:23:21.555Z,17.25
2022-12-08T05:24:33.011Z,18.60
2022-12-08T05:25:44.487Z,21.77
2022-12-08T05:26:55.993Z,19.60
2022-12-08T05:28:39.605Z,23.17
2022-12-08T05:29:38.913Z,19.50
2022-12-08T05:30:50.427Z,19.65
2022-12-08T05:32:01.935Z,22.88
2022-12-08T05:33:13.410Z,24.65
2022-12-08T05:34:24.922Z,19.98
2022-12-08T05:35:36.393Z,18.85
2022-12-08T05:36:48.210Z,29.73
2022-12-08T05:37:59.616Z,28.05
2022-12-08T05:39:14.797Z,25.77
2022-12-08T05:40:26.257Z,29.60
2022-12-08T05:41:37.770Z,28.65
2022-12-08T05:42:49.229Z,28.65
2022-12-08T05:44:00.653Z,33.63
2022-12-08T05:45:12.334Z,27.08
2022-12-08T05:46:23.866Z,28.50
2022-12-08T05:47:36.313Z,29.13
2022-12-08T05:48:47.858Z,25.52
2022-12-08T05:49:59.299Z,29.35
2022-12-08T05:51:17.136Z,60.28
2022-12-08T05:52:28.626Z,72.95
2022-12-08T05:53:40.025Z,69.60
2022-12-08T05:54:51.467Z,52.17
2022-12-08T05:56:02.980Z,38.63
2022-12-08T05:57:14.409Z,46.67
2022-12-08T05:58:25.868Z,39.38
2022-12-08T05:59:37.780Z,33.63
2022-12-08T06:00:49.713Z,37.92
2022-12-08T06:02:01.291Z,47.97
2022-12-08T06:03:13.450Z,42.22
2022-12-08T06:04:24.991Z,46.97
2022-12-08T06:05:36.614Z,41.40
2022-12-08T06:06:48.103Z,36.90
2022-12-08T06:07:59.570Z,44.38
2022-12-08T06:09:12.428Z,41.05
2022-12-08T06:10:23.925Z,40.75
2022-12-08T06:11:35.426Z,41.20
2022-12-08T06:12:46.896Z,38.38
2022-12-08T06:13:58.975Z,39.83
2022-12-08T06:15:10.545Z,51.65
2022-12-08T06:16:22.350Z,33.70
2022-12-08T06:17:33.930Z,37.35
2022-12-08T06:18:45.816Z,36.35
2022-12-08T06:19:57.358Z,37.22
2022-12-08T06:21:09.831Z,35.30
2022-12-08T06:22:21.312Z,34.42
2022-12-08T06:23:32.791Z,42.70
2022-12-08T06:24:44.202Z,36.53
2022-12-08T06:25:55.620Z,36.03
2022-12-08T06:27:07.066Z,44.97
2022-12-08T06:28:18.957Z,39.83
2022-12-08T06:29:30.513Z,50.33
2022-12-08T06:30:41.960Z,41.08
2022-12-08T06:31:53.488Z,31.40
2022-12-08T06:33:04.942Z,40.47
2022-12-08T06:34:16.368Z,49.03
2022-12-08T06:35:27.907Z,38.63
2022-12-08T06:36:39.512Z,33.65
2022-12-08T06:37:51.807Z,44.55
2022-12-08T06:39:03.455Z,32.53
2022-12-08T06:40:14.964Z,33.95
2022-12-08T06:41:26.536Z,35.92
2022-12-08T06:42:44.067Z,31.80
2022-12-08T06:43:56.285Z,28.52
2022-12-08T06:45:08.037Z,29.30
2022-12-08T06:46:19.932Z,28.85
2022-12-08T06:47:31.452Z,29.20
2022-12-08T06:48:43.104Z,45.17
2022-12-08T06:49:54.535Z,50.83
2022-12-08T06:51:13.462Z,59.00
2022-12-08T06:52:24.958Z,34.58
2022-12-08T06:53:36.873Z,33.25
2022-12-08T06:54:48.330Z,29.30
2022-12-08T06:56:00.128Z,29.90
2022-12-08T06:57:11.711Z,34.97
2022-12-08T06:58:23.169Z,29.92
2022-12-08T06:59:34.695Z,40.60
2022-12-08T07:00:46.281Z,32.90
2022-12-08T07:01:57.845Z,36.17
2022-12-08T07:03:09.977Z,32.90
2022-12-08T07:04:21.476Z,26.13
2022-12-08T07:05:33.005Z,29.63
2022-12-08T07:06:44.428Z,38.03
2022-12-08T07:07:56.006Z,43.72
2022-12-08T07:09:07.578Z,39.25
2022-12-08T07:10:19.102Z,34.30
2022-12-08T07:11:30.542Z,31.80
2022-12-08T07:12:41.982Z,30.35
2022-12-08T07:13:55.366Z,33.83
2022-12-08T07:15:07.200Z,45.78
2022-12-08T07:16:18.802Z,44.75
2022-12-08T07:17:30.392Z,40.03
2022-12-08T07:18:43.060Z,35.28
2022-12-08T07:19:54.561Z,37.83
2022-12-08T07:21:07.037Z,27.10
2022-12-08T07:22:18.479Z,31.20
2022-12-08T07:23:29.925Z,33.97
2022-12-08T07:24:41.386Z,26.90
2022-12-08T07:25:52.829Z,33.13
2022-12-08T07:27:04.318Z,29.45
2022-12-08T07:28:15.821Z,28.75
2022-12-08T07:29:27.272Z,40.28
2022-12-08T07:30:39.453Z,44.95
2022-12-08T07:31:51.149Z,30.70
2022-12-08T07:33:03.105Z,29.20
2022-12-08T07:34:14.547Z,27.45
2022-12-08T07:35:26.007Z,27.38
2022-12-08T07:36:37.511Z,28.30
2022-12-08T07:37:48.972Z,32.65
2022-12-08T07:39:00.463Z,30.45
2022-12-08T07:40:12.440Z,27.65
2022-12-08T07:41:25.063Z,28.33
2022-12-08T07:42:36.656Z,30.35
2022-12-08T07:43:48.413Z,32.70
2022-12-08T07:45:00.683Z,33.33
2022-12-08T07:46:13.437Z,35.63
2022-12-08T07:47:25.034Z,39.75
2022-12-08T07:48:36.525Z,29.27
2022-12-08T07:49:48.021Z,33.90
2022-12-08T07:51:03.385Z,29.73
2022-12-08T07:52:14.828Z,35.90
2022-12-08T07:53:26.267Z,31.60
2022-12-08T07:54:37.701Z,31.33
2022-12-08T07:55:49.154Z,25.55
2022-12-08T07:57:00.969Z,25.23
2022-12-08T07:58:12.598Z,22.85
2022-12-08T07:59:24.160Z,25.48
2022-12-08T08:00:35.847Z,26.60
2022-12-08T08:02:06.321Z,26.33
2022-12-08T08:03:20.976Z,26.77
2022-12-08T08:04:32.499Z,25.83
2022-12-08T08:05:44.400Z,30.13
2022-12-08T08:06:55.927Z,33.20
2022-12-08T08:08:07.390Z,29.17
2022-12-08T08:09:18.926Z,37.42
2022-12-08T08:10:30.431Z,35.78
2022-12-08T08:11:41.959Z,26.20
2022-12-08T08:12:53.418Z,24.73
2022-12-08T08:14:04.925Z,24.38
2022-12-08T08:15:17.475Z,20.35
2022-12-08T08:16:33.468Z,24.63
2022-12-08T08:17:54.282Z,31.17
2022-12-08T08:19:07.041Z,23.55
2022-12-08T08:23:05.550Z,21.98
2022-12-08T08:24:17.727Z,18.63
2022-12-08T08:25:29.203Z,20.55
2022-12-08T08:26:40.656Z,17.35
2022-12-08T08:27:52.142Z,21.40
2022-12-08T08:29:03.732Z,19.70
2022-12-08T08:30:20.268Z,17.98
2022-12-08T08:31:32.632Z,16.25
2022-12-08T08:32:44.249Z,17.92
2022-12-08T08:33:56.268Z,18.02
2022-12-08T08:35:08.904Z,15.48
2022-12-08T08:36:22.131Z,14.20
2022-12-08T08:37:33.664Z,14.40
2022-12-08T08:38:45.208Z,13.98
2022-12-08T08:39:56.780Z,15.85
2022-12-08T08:41:09.803Z,18.92
2022-12-08T08:42:21.259Z,22.23
2022-12-08T08:43:38.134Z,18.38
2022-12-08T08:44:50.217Z,13.35
2022-12-08T08:46:02.449Z,12.68
2022-12-08T08:47:13.897Z,15.57
2022-12-08T08:48:26.380Z,12.70
2022-12-08T08:49:37.867Z,14.27
2022-12-08T08:50:49.455Z,19.23
2022-12-08T08:52:00.918Z,17.75
2022-12-08T08:53:12.355Z,16.40
2022-12-08T08:54:23.927Z,13.45
2022-12-08T08:55:35.337Z,12.07
2022-12-08T08:56:48.260Z,12.02
2022-12-08T08:57:59.778Z,9.93
2022-12-08T08:59:11.381Z,11.07
2022-12-08T09:00:22.838Z,16.00
2022-12-08T09:01:34.355Z,14.32
2022-12-08T09:02:45.877Z,11.77
2022-12-08T09:03:57.742Z,11.90
2022-12-08T09:05:09.432Z,13.60
2022-12-08T09:06:21.495Z,14.30
2022-12-08T09:07:33.108Z,9.85
2022-12-08T09:08:45.463Z,9.55
2022-12-08T09:10:01.352Z,17.70
2022-12-08T09:11:13.468Z,10.98
2022-12-08T09:12:24.893Z,14.48
2022-12-08T09:13:36.617Z,15.77
2022-12-08T09:14:48.115Z,14.65
2022-12-08T09:16:02.941Z,14.20
2022-12-08T09:17:14.795Z,11.13
2022-12-08T09:18:26.352Z,14.20
2022-12-08T09:19:37.807Z,12.20
2022-12-08T09:20:49.370Z,13.55
2022-12-08T09:22:00.843Z,12.65
2022-12-08T09:23:12.295Z,15.35
2022-12-08T09:24:23.733Z,9.85
2022-12-08T09:25:35.175Z,12.70
2022-12-08T09:26:47.262Z,18.10
2022-12-08T09:27:58.820Z,12.73
2022-12-08T09:29:11.045Z,12.05
2022-12-08T09:30:22.537Z,11.90
2022-12-08T09:31:34.103Z,10.48
2022-12-08T09:32:45.652Z,9.32
2022-12-08T09:33:57.126Z,11.05
2022-12-08T09:35:08.649Z,14.02
2022-12-08T09:36:20.544Z,9.73
2022-12-08T09:37:32.153Z,10.68
2022-12-08T09:38:43.661Z,11.88
2022-12-08T09:39:55.184Z,9.57
2022-12-08T09:41:17.966Z,14.98
2022-12-08T09:42:38.767Z,7.60
2022-12-08T09:44:09.122Z,12.27
2022-12-08T09:45:22.660Z,8.23
2022-12-08T09:46:34.542Z,8.02
2022-12-08T09:47:48.778Z,9.85
2022-12-08T09:49:00.964Z,13.35
2022-12-08T09:50:27.676Z,11.48
2022-12-08T09:51:40.522Z,16.50
2022-12-08T09:53:12.330Z,8.43
2022-12-08T09:54:36.139Z,64.95
2022-12-08T09:55:59.033Z,11.77
2022-12-08T09:57:13.470Z,18.58
2022-12-08T09:58:32.917Z,10.65
2022-12-08T09:59:47.819Z,24.88
2022-12-08T10:00:59.605Z,12.23
2022-12-08T10:02:37.175Z,18.08
2022-12-08T10:03:49.232Z,29.20
2022-12-08T10:05:00.829Z,41.42
2022-12-08T10:06:18.788Z,62.65
2022-12-08T10:07:34.912Z,91.35
2022-12-08T10:09:12.828Z,25.08
2022-12-08T10:10:27.839Z,28.90
2022-12-08T10:11:49.310Z,27.10
2022-12-08T10:13:20.890Z,13.88
2022-12-08T10:14:40.125Z,29.45
2022-12-08T10:16:12.916Z,18.85
2022-12-08T10:17:38.187Z,29.23
2022-12-08T10:18:55.378Z,18.50
2022-12-08T10:20:12.297Z,32.17
2022-12-08T10:21:27.133Z,16.85
2022-12-08T10:22:44.281Z,15.63
2022-12-08T10:23:59.878Z,36.65
2022-12-08T10:25:19.365Z,110.53
2022-12-08T10:26:32.809Z,24.17
2022-12-08T10:27:44.476Z,19.13
2022-12-08T10:29:01.311Z,20.58
2022-12-08T10:30:13.457Z,16.55
2022-12-08T10:31:25.324Z,28.67
2022-12-08T10:32:36.854Z,24.65
2022-12-08T10:33:49.519Z,22.88
2022-12-08T10:35:01.328Z,16.52
2022-12-08T10:36:13.019Z,9.10
2022-12-08T10:37:24.540Z,14.57
2022-12-08T10:38:37.284Z,9.75
2022-12-08T10:39:58.509Z,14.13
2022-12-08T10:41:09.977Z,10.63
2022-12-08T10:42:22.442Z,10.20
2022-12-08T10:43:34.465Z,9.98
2022-12-08T10:45:16.048Z,8.95
2022-12-08T10:46:29.078Z,7.43
2022-12-08T10:47:45.029Z,14.70
2022-12-08T10:48:57.113Z,9.05
2022-12-08T10:50:18.910Z,9.35
2022-12-08T10:51:33.496Z,10.27
2022-12-08T10:52:45.482Z,9.18
2022-12-08T10:53:57.275Z,10.45
2022-12-08T10:55:16.372Z,8.60
2022-12-08T10:56:29.187Z,8.75
2022-12-08T10:57:40.787Z,6.18
2022-12-08T10:59:05.211Z,6.38
2022-12-08T11:00:27.913Z,10.30
2022-12-08T11:01:40.444Z,9.65
2022-12-08T11:03:03.053Z,8.25
2022-12-08T11:04:17.521Z,7.00
2022-12-08T11:05:33.517Z,11.40
2022-12-08T11:06:45.708Z,10.68
2022-12-08T11:07:57.380Z,13.77
2022-12-08T11:09:18.544Z,11.73
2022-12-08T11:10:37.451Z,10.50
2022-12-08T11:11:50.013Z,10.45
2022-12-08T11:13:02.701Z,20.63
2022-12-08T11:14:19.835Z,15.35
2022-12-08T11:15:33.423Z,16.95
2022-12-08T11:16:45.334Z,18.88
2022-12-08T11:18:00.913Z,12.38
2022-12-08T11:19:16.562Z,13.27
2022-12-08T11:20:37.899Z,14.32
2022-12-08T11:21:49.426Z,21.23
2022-12-08T11:23:00.930Z,12.15
2022-12-08T11:24:15.423Z,12.75
2022-12-08T11:25:27.667Z,14.18
2022-12-08T11:26:39.196Z,13.18
2022-12-08T11:27:52.869Z,13.52
2022-12-08T11:29:04.465Z,14.65
2022-12-08T11:30:27.340Z,28.80
2022-12-08T11:31:40.963Z,30.88
2022-12-08T11:33:08.475Z,25.92
2022-12-08T11:34:23.621Z,28.40
2022-12-08T11:35:37.578Z,27.85
2022-12-08T11:36:49.790Z,32.20
2022-12-08T11:38:21.424Z,32.35
2022-12-08T11:39:35.417Z,32.92
2022-12-08T11:40:48.316Z,21.73
2022-12-08T11:42:01.711Z,20.83
2022-12-08T11:43:22.737Z,22.13
2022-12-08T11:44:37.819Z,24.25
2022-12-08T11:46:02.576Z,26.52
2022-12-08T11:47:17.318Z,20.08
2022-12-08T11:48:47.602Z,17.17
2022-12-08T11:50:03.945Z,22.05
2022-12-08T11:51:29.924Z,20.38
2022-12-08T11:52:46.008Z,21.15
2022-12-08T11:53:57.689Z,26.08
2022-12-08T11:55:24.460Z,13.40
2022-12-08T11:56:44.644Z,17.95
2022-12-08T11:57:57.306Z,14.65
2022-12-08T11:59:11.571Z,14.25
2022-12-08T12:00:23.440Z,13.38
2022-12-08T12:01:40.912Z,13.80
2022-12-08T12:03:01.858Z,11.43
2022-12-08T12:04:13.967Z,12.35
2022-12-08T12:07:19.474Z,13.95
2022-12-08T12:08:44.020Z,12.45
2022-12-08T12:10:08.227Z,10.77
2022-12-08T12:11:54.068Z,10.52
2022-12-08T12:13:24.276Z,10.82
2022-12-08T12:14:54.449Z,16.17
2022-12-08T12:16:18.278Z,7.97
2022-12-08T12:17:39.826Z,14.38
2022-12-08T12:18:56.676Z,9.88
2022-12-08T12:20:18.432Z,10.75
2022-12-08T12:21:34.786Z,10.57
2022-12-08T12:22:49.601Z,12.65
2022-12-08T12:24:05.241Z,7.88
2022-12-08T12:25:21.154Z,13.02
2022-12-08T12:26:37.372Z,11.23
2022-12-08T12:27:50.032Z,9.98
2022-12-08T12:29:06.077Z,11.52
2022-12-08T12:30:22.253Z,12.02
2022-12-08T12:31:38.476Z,9.98
2022-12-08T12:33:00.719Z,9.82
2022-12-08T12:34:16.804Z,10.95
2022-12-08T12:35:41.521Z,8.48
2022-12-08T12:36:52.994Z,13.60
2022-12-08T12:38:29.041Z,10.77
2022-12-08T12:39:46.603Z,10.40
2022-12-08T12:41:02.550Z,9.15
2022-12-08T12:42:32.897Z,7.47
2022-12-08T12:44:04.303Z,7.32
2022-12-08T12:45:20.015Z,6.75
2022-12-08T12:46:42.642Z,6.97
2022-12-08T12:47:57.318Z,8.38
2022-12-08T12:49:27.479Z,8.65
2022-12-08T12:50:43.625Z,6.43
2022-12-08T12:51:55.526Z,7.93
2022-12-08T12:53:13.637Z,5.35
2022-12-08T12:54:26.589Z,8.55
2022-12-08T12:55:52.019Z,8.98
2022-12-08T12:57:09.685Z,5.97
2022-12-08T12:58:33.492Z,9.30
2022-12-08T12:59:55.280Z,26.90
2022-12-08T13:01:10.254Z,9.77
2022-12-08T13:02:23.919Z,8.20
2022-12-08T13:03:35.676Z,11.23
2022-12-08T13:04:53.813Z,9.45
2022-12-08T13:06:09.947Z,7.53
2022-12-08T13:07:26.088Z,8.27
2022-12-08T13:08:40.005Z,8.05
2022-12-08T13:10:02.793Z,8.48
2022-12-08T13:11:14.483Z,11.38
2022-12-08T13:12:28.246Z,10.43
2022-12-08T13:13:55.942Z,12.18
2022-12-08T13:15:15.644Z,10.38
2022-12-08T13:16:31.161Z,13.18
2022-12-08T13:17:44.350Z,16.13
2022-12-08T13:19:02.381Z,13.57
2022-12-08T13:20:24.124Z,17.95
2022-12-08T13:21:39.451Z,19.08
2022-12-08T13:22:51.430Z,13.68
2022-12-08T13:24:19.796Z,21.63
2022-12-08T13:25:40.370Z,19.73
2022-12-08T13:27:04.028Z,23.15
2022-12-08T13:28:15.436Z,23.15
2022-12-08T13:29:26.889Z,23.30
2022-12-08T13:30:49.108Z,14.80
2022-12-08T13:32:02.122Z,19.63
2022-12-08T13:33:40.259Z,19.85
2022-12-08T13:34:53.466Z,23.17
2022-12-08T13:36:21.333Z,20.02
2022-12-08T13:37:50.773Z,24.13
2022-12-08T13:39:06.419Z,17.65
2022-12-08T13:40:24.209Z,29.25
2022-12-08T13:41:40.130Z,28.13
2022-12-08T13:43:02.028Z,31.60
2022-12-08T13:47:34.706Z,24.20
2022-12-08T13:53:49.075Z,33.40
2022-12-08T13:54:52.346Z,23.52
2022-12-08T13:57:35.249Z,20.05
2022-12-08T13:58:47.055Z,32.55
2022-12-08T14:00:14.048Z,19.20
2022-12-08T14:01:25.871Z,25.30
2022-12-08T14:02:45.362Z,21.65
2022-12-08T14:04:31.126Z,16.23
2022-12-08T14:06:10.490Z,15.20
2022-12-08T14:07:11.806Z,16.83
2022-12-08T14:08:59.298Z,19.20
2022-12-08T14:10:08.335Z,20.58
2022-12-08T14:11:35.088Z,13.27
2022-12-08T14:12:48.090Z,20.30
2022-12-08T14:14:03.496Z,20.48
2022-12-08T14:15:15.858Z,16.77
2022-12-08T14:16:37.577Z,15.18
2022-12-08T14:17:52.719Z,18.60
2022-12-08T14:19:05.346Z,15.18
2022-12-08T14:20:25.904Z,21.98
2022-12-08T14:21:37.380Z,17.08
2022-12-08T14:22:50.227Z,18.48
2022-12-08T14:24:02.746Z,17.65
2022-12-08T14:25:15.249Z,15.65
2022-12-08T14:26:26.705Z,18.67
2022-12-08T14:27:38.668Z,18.80
2022-12-08T14:28:50.202Z,19.42
2022-12-08T14:30:02.433Z,19.13
2022-12-08T14:31:14.861Z,14.88
2022-12-08T14:32:31.241Z,22.90
2022-12-08T14:33:43.211Z,25.88
2022-12-08T14:34:57.316Z,28.48
2022-12-08T14:36:09.438Z,37.00
2022-12-08T14:37:21.897Z,37.70
2022-12-08T14:38:33.495Z,29.55
2022-12-08T14:39:45.159Z,33.30
2022-12-08T14:40:59.504Z,27.98
2022-12-08T14:42:24.106Z,29.50
2022-12-08T14:43:35.768Z,31.25
2022-12-08T14:44:47.348Z,39.55
2022-12-08T14:46:03.482Z,39.55
2022-12-08T14:47:19.353Z,46.90
2022-12-08T14:48:30.817Z,77.35
2022-12-08T14:49:44.558Z,66.38
2022-12-08T14:50:56.182Z,43.15
2022-12-08T14:52:11.759Z,40.75
2022-12-08T14:53:24.137Z,31.98
2022-12-08T14:54:35.820Z,38.75
2022-12-08T14:55:48.019Z,36.33
2022-12-08T14:57:01.022Z,23.10
2022-12-08T14:58:17.953Z,30.00
2022-12-08T14:59:34.269Z,39.13
2022-12-08T15:00:47.224Z,34.40
2022-12-08T15:02:19.448Z,44.90
2022-12-08T15:03:31.701Z,37.45
2022-12-08T15:04:45.181Z,44.05
2022-12-08T15:05:57.781Z,42.72
2022-12-08T15:07:16.578Z,43.85
2022-12-08T15:08:28.386Z,33.17
2022-12-08T15:09:41.343Z,31.83
2022-12-08T15:11:11.616Z,41.65
2022-12-08T15:12:27.005Z,34.05
2022-12-08T15:13:46.431Z,41.88
2022-12-08T15:15:09.920Z,38.95
2022-12-08T15:16:24.312Z,44.13
2022-12-08T15:17:44.785Z,33.22
2022-12-08T15:19:17.013Z,24.77
2022-12-08T15:20:49.094Z,29.73
2022-12-08T15:22:17.602Z,28.20
2022-12-08T15:23:31.302Z,28.40
2022-12-08T15:24:42.998Z,30.17
2022-12-08T15:25:55.205Z,31.65
2022-12-08T15:27:06.673Z,36.92
2022-12-08T15:28:19.799Z,31.23
2022-12-08T15:29:31.411Z,32.50
2022-12-08T15:30:43.010Z,38.17
2022-12-08T15:31:56.073Z,44.78
2022-12-08T15:33:07.700Z,35.47
2022-12-08T15:34:19.792Z,32.40
2022-12-08T15:35:33.695Z,24.38
2022-12-08T15:36:52.938Z,19.92
2022-12-08T15:38:05.552Z,26.23
2022-12-08T15:39:36.644Z,30.30
2022-12-08T15:40:48.628Z,32.22
2022-12-08T15:42:00.665Z,27.35
2022-12-08T15:43:12.374Z,24.65
2022-12-08T15:44:23.912Z,22.38
2022-12-08T15:45:35.468Z,22.83
2022-12-08T15:46:47.022Z,25.50
2022-12-08T15:47:58.590Z,24.65
2022-12-08T15:49:16.467Z,34.85
2022-12-08T15:50:28.094Z,27.35
2022-12-08T15:51:39.602Z,39.78
2022-12-08T15:52:51.185Z,39.33
2022-12-08T15:54:02.771Z,36.75
2022-12-08T15:55:23.261Z,25.40
2022-12-08T15:56:45.358Z,22.00
2022-12-08T15:59:38.956Z,15.18
2022-12-08T16:00:53.418Z,16.65
2022-12-08T16:02:05.623Z,16.80
2022-12-08T16:05:40.976Z,18.60
2022-12-08T16:08:07.778Z,11.80
2022-12-08T16:09:38.441Z,10.70
2022-12-08T16:11:40.906Z,11.85
2022-12-08T16:15:08.570Z,23.80
2022-12-08T16:15:55.161Z,32.70
2022-12-08T16:17:17.415Z,39.25
2022-12-08T16:18:31.625Z,29.33
2022-12-08T16:19:45.677Z,24.13
2022-12-08T16:21:31.481Z,24.80
2022-12-08T16:24:09.041Z,18.38
2022-12-08T16:25:22.468Z,16.55
2022-12-08T16:27:50.733Z,11.57
2022-12-08T16:28:29.292Z,57.58
2022-12-08T16:29:37.359Z,46.78